Historyczne dane pomiarowe

Dodano dane terminowe – wersja testowa.

Dane z okresu 1951-2019

Wersja bazy: 1.34 [2019-03-16, lista zmian], aktualizacja planowana na 2019-04-15

Dane meteo z obszaru Polski uzyskane na podstawie danych udostępnionych przez Instytut Meteorologii i Gospodarki Wodnej – Państwowy Instytut Badawczy.

 

Wybierz Datę:    

       

TemperaturaWilgotnośćZachmurzenieWiatrCiśnienieWidzialnośćZjawiska
 Data    tng td wb rh cc ccl cl cm ch dir g1 g2 mslp ppp      
1994-07-06 00:00:00 13.7--- 12.1 12.890wxwx0wx--1017.8 977.1 0.0---wx
1994-07-06 01:00:00 13.2--- 12.0 12.592wxwx0wx--1017.9 977.1----wx
1994-07-06 02:00:00 13.2--- 12.0 12.592wxwx0wx--1017.6 976.8----wx
1994-07-06 03:00:00 12.8--- 11.9 12.394wxwxwx0wx--1017.8 976.9----wx
1994-07-06 04:00:00 12.5--- 11.4 11.993wxwxwx0wx--1018.1 977.2----wx
1994-07-06 05:00:00 14.2--- 13.0 13.593wxwxwx0wx--1017.9 977.2----wx
1994-07-06 06:00:00 16.3--- 14.2 15.087wxwxwx0wx--1017.5 977.1 0.0---wx
1994-07-06 07:00:00 19.6--- 16.0 17.380wxwxwx0wx--1016.9 977.0----wx
1994-07-06 08:00:00 21.0--- 15.3 17.470wxwxwx3wx--1016.6 976.9----wx
1994-07-06 09:00:00 21.6--- 15.6 17.869wxwxwx3wx--1016.5 976.9----wx
1994-07-06 10:00:00 22.8--- 15.1 17.962wxwxwxwx3wx--1016.5 977.0----wx
1994-07-06 11:00:00 23.4--- 14.1 17.656wxwxwx3wx--1015.8 976.4----wx
1994-07-06 12:00:00 23.7--- 13.1 17.252wxwxwx2wx--1015.6 976.3 0.0---wx
1994-07-06 13:00:00 24.1--- 12.1 16.847wxwxwx1wx--1015.3 976.0----wx
1994-07-06 14:00:00 24.4--- 13.1 17.449wxwxwx0wx--1014.9 975.7----wx
1994-07-06 15:00:00 21.3--- 14.6 17.166wxwxwx4wx--1015.5 975.9----wx
1994-07-06 16:00:00 23.0--- 14.9 17.960wxwxwx0wx--1014.9 975.5----wx
1994-07-06 17:00:00 22.4--- 14.8 17.662wxwxwxwx2wx--1014.5 975.1----wx
1994-07-06 18:00:00 22.0--- 15.4 17.866wxwxwxwx0wx--1014.4 974.9 0.2---wxw1
1994-07-06 19:00:00 18.3--- 14.6 16.079wxwxwxwx0wx--1015.1 975.1----wx
1994-07-06 20:00:00 16.6--- 12.9 14.479wxwxwxwx0wx--1015.7 975.4----wx
1994-07-06 21:00:00 15.6--- 14.1 14.791wxwxwxwx0wx--1016.1 975.7----wx
1994-07-06 22:00:00 15.3--- 14.3 14.794wxwxwx0wx--1016.2 975.7----wx
1994-07-06 23:00:00 14.0--- 13.0 13.494wxwx0wx--1016.0 975.4----wx

 

Źródłem pochodzenia danych jest Instytut Meteorologii i Gospodarki Wodnej – Państwowy Instytut Badawczy. Dane Instytutu Meteorologii i Gospodarki Wodnej – Państwowego Instytutu Badawczego zostały przetworzone.

Dane źródłowe można odnaleźć na stronie https://dane.imgw.pl